sensor_id;sensor_type;location;lat;lon;timestamp;pressure;altitude;pressure_sealevel;temperature;humidity
76611;BME280;65503;48.534;9.062;2023-04-01T00:01:22;95722.69;;;9.68;73.69
76611;BME280;65503;48.534;9.062;2023-04-01T00:03:49;95735.25;;;9.56;74.01
76611;BME280;65503;48.534;9.062;2023-04-01T00:06:17;95729.41;;;9.49;73.98
76611;BME280;65503;48.534;9.062;2023-04-01T00:08:44;95732.41;;;9.68;73.81
76611;BME280;65503;48.534;9.062;2023-04-01T00:11:11;95733.66;;;9.55;74.17
76611;BME280;65503;48.534;9.062;2023-04-01T00:13:38;95727.50;;;9.81;73.31
76611;BME280;65503;48.534;9.062;2023-04-01T00:16:04;95725.06;;;9.70;73.38
76611;BME280;65503;48.534;9.062;2023-04-01T00:18:45;95728.00;;;9.78;72.69
76611;BME280;65503;48.534;9.062;2023-04-01T00:21:13;95719.56;;;9.71;72.36
76611;BME280;65503;48.534;9.062;2023-04-01T00:23:39;95715.47;;;9.90;71.98
76611;BME280;65503;48.534;9.062;2023-04-01T00:26:06;95719.44;;;10.03;71.89
76611;BME280;65503;48.534;9.062;2023-04-01T00:28:34;95714.34;;;9.81;72.12
76611;BME280;65503;48.534;9.062;2023-04-01T00:31:05;95715.47;;;9.90;71.77
76611;BME280;65503;48.534;9.062;2023-04-01T00:33:36;95715.53;;;9.59;72.56
76611;BME280;65503;48.534;9.062;2023-04-01T00:36:21;95710.72;;;9.92;71.97
76611;BME280;65503;48.534;9.062;2023-04-01T00:38:48;95712.13;;;9.58;72.87
76611;BME280;65503;48.534;9.062;2023-04-01T00:41:15;95716.41;;;9.74;72.56
76611;BME280;65503;48.534;9.062;2023-04-01T00:43:46;95711.22;;;9.79;72.50
76611;BME280;65503;48.534;9.062;2023-04-01T00:46:13;95717.00;;;9.86;72.02
76611;BME280;65503;48.534;9.062;2023-04-01T00:48:46;95712.56;;;9.92;71.55
76611;BME280;65503;48.534;9.062;2023-04-01T00:51:19;95716.00;;;9.92;71.82
76611;BME280;65503;48.534;9.062;2023-04-01T00:53:48;95705.38;;;9.67;72.41
76611;BME280;65503;48.534;9.062;2023-04-01T00:56:22;95709.66;;;9.83;71.81
76611;BME280;65503;48.534;9.062;2023-04-01T00:59:02;95706.44;;;9.71;71.93
76611;BME280;65503;48.534;9.062;2023-04-01T01:01:30;95710.66;;;9.77;71.49
76611;BME280;65503;48.534;9.062;2023-04-01T01:03:57;95704.97;;;9.90;70.89
76611;BME280;65503;48.534;9.062;2023-04-01T01:14:39;95716.72;;;9.78;71.57
76611;BME280;65503;48.534;9.062;2023-04-01T01:17:18;95715.34;;;9.70;70.75
76611;BME280;65503;48.534;9.062;2023-04-01T01:20:04;95717.91;;;9.55;71.66
76611;BME280;65503;48.534;9.062;2023-04-01T01:31:50;95714.94;;;9.09;71.03
76611;BME280;65503;48.534;9.062;2023-04-01T01:34:24;95724.31;;;9.32;70.98
76611;BME280;65503;48.534;9.062;2023-04-01T01:36:56;95721.94;;;9.31;70.78
76611;BME280;65503;48.534;9.062;2023-04-01T01:39:26;95711.13;;;9.64;69.87
76611;BME280;65503;48.534;9.062;2023-04-01T01:42:02;95716.50;;;9.84;69.39
76611;BME280;65503;48.534;9.062;2023-04-01T01:44:31;95713.44;;;9.56;69.78
76611;BME280;65503;48.534;9.062;2023-04-01T01:46:59;95719.50;;;9.61;69.51
76611;BME280;65503;48.534;9.062;2023-04-01T01:49:27;95713.72;;;9.59;69.50
76611;BME280;65503;48.534;9.062;2023-04-01T01:51:57;95714.06;;;9.73;69.43
76611;BME280;65503;48.534;9.062;2023-04-01T01:54:23;95713.06;;;9.42;69.18
76611;BME280;65503;48.534;9.062;2023-04-01T01:56:53;95724.53;;;9.68;68.83
76611;BME280;65503;48.534;9.062;2023-04-01T01:59:23;95714.19;;;9.51;69.36
76611;BME280;65503;48.534;9.062;2023-04-01T02:01:53;95716.16;;;9.76;68.41
76611;BME280;65503;48.534;9.062;2023-04-01T02:04:21;95716.47;;;9.79;67.91
76611;BME280;65503;48.534;9.062;2023-04-01T02:07:21;95717.56;;;9.93;67.57
76611;BME280;65503;48.534;9.062;2023-04-01T02:09:50;95716.50;;;9.84;67.64
76611;BME280;65503;48.534;9.062;2023-04-01T02:12:18;95718.13;;;9.95;67.63
76611;BME280;65503;48.534;9.062;2023-04-01T02:14:52;95721.00;;;9.94;67.80
76611;BME280;65503;48.534;9.062;2023-04-01T02:17:22;95726.50;;;9.98;67.80
76611;BME280;65503;48.534;9.062;2023-04-01T02:19:52;95730.06;;;9.71;68.62
76611;BME280;65503;48.534;9.062;2023-04-01T02:22:22;95725.22;;;9.53;69.57
76611;BME280;65503;48.534;9.062;2023-04-01T02:24:53;95725.91;;;9.80;69.47
76611;BME280;65503;48.534;9.062;2023-04-01T02:27:21;95728.47;;;9.65;68.97
76611;BME280;65503;48.534;9.062;2023-04-01T02:29:47;95731.00;;;9.50;69.02
76611;BME280;65503;48.534;9.062;2023-04-01T02:32:14;95732.22;;;9.37;69.81
76611;BME280;65503;48.534;9.062;2023-04-01T02:34:42;95728.84;;;9.42;69.52
76611;BME280;65503;48.534;9.062;2023-04-01T02:37:08;95742.41;;;9.71;68.90
76611;BME280;65503;48.534;9.062;2023-04-01T02:39:36;95738.38;;;9.58;69.41
76611;BME280;65503;48.534;9.062;2023-04-01T02:42:03;95735.28;;;9.66;69.28
76611;BME280;65503;48.534;9.062;2023-04-01T02:44:29;95735.88;;;9.73;68.89
76611;BME280;65503;48.534;9.062;2023-04-01T02:46:56;95724.34;;;9.79;69.37
76611;BME280;65503;48.534;9.062;2023-04-01T02:49:22;95724.00;;;9.66;69.27
76611;BME280;65503;48.534;9.062;2023-04-01T02:51:49;95728.34;;;9.45;69.92
76611;BME280;65503;48.534;9.062;2023-04-01T02:54:16;95716.81;;;9.51;69.66
76611;BME280;65503;48.534;9.062;2023-04-01T02:56:42;95721.34;;;9.24;69.86
76611;BME280;65503;48.534;9.062;2023-04-01T02:59:09;95722.44;;;9.28;70.02
76611;BME280;65503;48.534;9.062;2023-04-01T03:01:35;95709.25;;;9.23;70.42
76611;BME280;65503;48.534;9.062;2023-04-01T03:04:02;95716.53;;;9.47;69.42
76611;BME280;65503;48.534;9.062;2023-04-01T03:06:29;95714.03;;;9.26;69.69
76611;BME280;65503;48.534;9.062;2023-04-01T03:08:56;95723.03;;;9.40;69.10
76611;BME280;65503;48.534;9.062;2023-04-01T03:11:22;95728.09;;;9.15;69.61
76611;BME280;65503;48.534;9.062;2023-04-01T03:13:49;95720.41;;;9.40;68.51
76611;BME280;65503;48.534;9.062;2023-04-01T03:16:15;95733.50;;;9.35;68.09
76611;BME280;65503;48.534;9.062;2023-04-01T03:18:42;95728.25;;;9.35;68.02
76611;BME280;65503;48.534;9.062;2023-04-01T03:21:18;95733.50;;;9.35;68.12
76611;BME280;65503;48.534;9.062;2023-04-01T03:23:45;95734.78;;;9.27;67.90
76611;BME280;65503;48.534;9.062;2023-04-01T03:26:11;95735.56;;;8.96;68.78
76611;BME280;65503;48.534;9.062;2023-04-01T03:28:38;95729.00;;;8.93;69.29
76611;BME280;65503;48.534;9.062;2023-04-01T03:31:05;95724.84;;;9.02;68.50
76611;BME280;65503;48.534;9.062;2023-04-01T03:33:33;95728.84;;;9.05;68.54
76611;BME280;65503;48.534;9.062;2023-04-01T03:35:59;95725.91;;;9.01;68.69
76611;BME280;65503;48.534;9.062;2023-04-01T03:38:26;95722.16;;;8.92;68.66
76611;BME280;65503;48.534;9.062;2023-04-01T03:40:52;95722.56;;;8.79;68.97
76611;BME280;65503;48.534;9.062;2023-04-01T03:43:19;95729.09;;;8.77;68.74
76611;BME280;65503;48.534;9.062;2023-04-01T03:45:50;95727.19;;;8.72;69.52
76611;BME280;65503;48.534;9.062;2023-04-01T03:48:18;95729.63;;;8.79;69.54
76611;BME280;65503;48.534;9.062;2023-04-01T03:50:44;95729.03;;;8.98;68.99
76611;BME280;65503;48.534;9.062;2023-04-01T03:53:11;95720.69;;;9.06;68.62
76611;BME280;65503;48.534;9.062;2023-04-01T03:55:38;95719.69;;;9.12;68.60
76611;BME280;65503;48.534;9.062;2023-04-01T03:58:06;95706.94;;;8.94;68.76
76611;BME280;65503;48.534;9.062;2023-04-01T04:00:33;95710.69;;;9.03;68.48
76611;BME280;65503;48.534;9.062;2023-04-01T04:03:01;95709.69;;;8.51;69.89
76611;BME280;65503;48.534;9.062;2023-04-01T04:05:27;95703.19;;;8.85;69.77
76611;BME280;65503;48.534;9.062;2023-04-01T04:07:54;95694.44;;;9.06;68.71
76611;BME280;65503;48.534;9.062;2023-04-01T04:10:21;95692.88;;;9.05;69.30
76611;BME280;65503;48.534;9.062;2023-04-01T04:12:49;95688.72;;;9.09;68.73
76611;BME280;65503;48.534;9.062;2023-04-01T04:15:16;95694.97;;;9.03;68.88
76611;BME280;65503;48.534;9.062;2023-04-01T04:17:44;95695.41;;;8.95;69.09
76611;BME280;65503;48.534;9.062;2023-04-01T04:20:10;95692.16;;;9.15;68.69
76611;BME280;65503;48.534;9.062;2023-04-01T04:22:37;95689.34;;;8.90;69.67
76611;BME280;65503;48.534;9.062;2023-04-01T04:25:04;95684.59;;;8.87;69.64
76611;BME280;65503;48.534;9.062;2023-04-01T04:27:30;95695.44;;;9.00;69.31
76611;BME280;65503;48.534;9.062;2023-04-01T04:29:57;95691.31;;;9.04;68.88
76611;BME280;65503;48.534;9.062;2023-04-01T04:32:23;95698.13;;;9.05;69.14
76611;BME280;65503;48.534;9.062;2023-04-01T04:34:50;95702.13;;;9.13;68.85
76611;BME280;65503;48.534;9.062;2023-04-01T04:37:16;95700.09;;;9.25;68.86
76611;BME280;65503;48.534;9.062;2023-04-01T04:39:43;95698.25;;;9.21;68.66
76611;BME280;65503;48.534;9.062;2023-04-01T04:42:09;95696.03;;;9.44;68.58
76611;BME280;65503;48.534;9.062;2023-04-01T04:44:36;95693.66;;;9.43;68.16
76611;BME280;65503;48.534;9.062;2023-04-01T04:47:02;95702.31;;;9.38;68.03
76611;BME280;65503;48.534;9.062;2023-04-01T04:49:29;95696.78;;;9.40;68.09
76611;BME280;65503;48.534;9.062;2023-04-01T04:51:56;95705.25;;;9.52;67.42
76611;BME280;65503;48.534;9.062;2023-04-01T04:54:22;95695.66;;;9.26;68.39
76611;BME280;65503;48.534;9.062;2023-04-01T04:56:51;95698.97;;;9.53;68.11
76611;BME280;65503;48.534;9.062;2023-04-01T04:59:18;95693.72;;;9.53;67.10
76611;BME280;65503;48.534;9.062;2023-04-01T05:01:44;95695.75;;;9.41;67.55
76611;BME280;65503;48.534;9.062;2023-04-01T05:04:11;95703.53;;;9.26;67.97
76611;BME280;65503;48.534;9.062;2023-04-01T05:06:38;95692.16;;;9.15;68.90
76611;BME280;65503;48.534;9.062;2023-04-01T05:09:04;95694.66;;;9.00;69.58
76611;BME280;65503;48.534;9.062;2023-04-01T05:11:31;95697.16;;;9.17;68.42
76611;BME280;65503;48.534;9.062;2023-04-01T05:13:57;95696.19;;;9.28;68.19
76611;BME280;65503;48.534;9.062;2023-04-01T05:16:24;95696.38;;;9.58;67.16
76611;BME280;65503;48.534;9.062;2023-04-01T05:18:50;95691.50;;;9.35;67.49
76611;BME280;65503;48.534;9.062;2023-04-01T05:21:17;95700.44;;;9.34;67.41
76611;BME280;65503;48.534;9.062;2023-04-01T05:23:44;95702.09;;;9.45;66.63
76611;BME280;65503;48.534;9.062;2023-04-01T05:26:13;95689.41;;;9.32;67.09
76611;BME280;65503;48.534;9.062;2023-04-01T05:28:40;95690.47;;;9.36;67.09
76611;BME280;65503;48.534;9.062;2023-04-01T05:31:07;95694.78;;;9.57;66.74
76611;BME280;65503;48.534;9.062;2023-04-01T05:33:33;95695.75;;;9.46;66.22
76611;BME280;65503;48.534;9.062;2023-04-01T05:36:20;95688.91;;;9.87;65.61
76611;BME280;65503;48.534;9.062;2023-04-01T05:38:47;95685.38;;;9.61;66.45
76611;BME280;65503;48.534;9.062;2023-04-01T05:41:14;95693.84;;;9.73;65.00
76611;BME280;65503;48.534;9.062;2023-04-01T05:43:42;95688.41;;;9.90;65.13
76611;BME280;65503;48.534;9.062;2023-04-01T05:46:08;95686.63;;;10.06;65.14
76611;BME280;65503;48.534;9.062;2023-04-01T05:48:35;95684.50;;;10.03;64.49
76611;BME280;65503;48.534;9.062;2023-04-01T05:51:02;95687.28;;;10.43;63.66
76611;BME280;65503;48.534;9.062;2023-04-01T05:53:29;95677.78;;;10.37;63.34
76611;BME280;65503;48.534;9.062;2023-04-01T05:55:56;95694.69;;;10.61;62.51
76611;BME280;65503;48.534;9.062;2023-04-01T05:58:22;95687.88;;;10.70;62.36
76611;BME280;65503;48.534;9.062;2023-04-01T06:00:49;95683.91;;;10.88;62.35
76611;BME280;65503;48.534;9.062;2023-04-01T06:03:35;95677.88;;;11.08;62.10
76611;BME280;65503;48.534;9.062;2023-04-01T06:06:02;95681.03;;;11.20;61.08
76611;BME280;65503;48.534;9.062;2023-04-01T06:08:30;95671.81;;;11.07;61.11
76611;BME280;65503;48.534;9.062;2023-04-01T06:13:50;95678.91;;;11.17;60.87
76611;BME280;65503;48.534;9.062;2023-04-01T06:22:02;95671.56;;;11.04;60.54
76611;BME280;65503;48.534;9.062;2023-04-01T06:24:39;95672.09;;;11.16;60.48
76611;BME280;65503;48.534;9.062;2023-04-01T06:35:46;95662.53;;;10.29;62.89
76611;BME280;65503;48.534;9.062;2023-04-01T06:38:32;95669.16;;;10.72;62.19
76611;BME280;65503;48.534;9.062;2023-04-01T06:44:14;95664.25;;;9.98;63.58
76611;BME280;65503;48.534;9.062;2023-04-01T06:46:58;95663.09;;;10.56;62.64
76611;BME280;65503;48.534;9.062;2023-04-01T06:49:48;95665.75;;;10.76;61.24
76611;BME280;65503;48.534;9.062;2023-04-01T06:55:29;95660.72;;;10.40;62.88
76611;BME280;65503;48.534;9.062;2023-04-01T06:58:00;95660.16;;;10.32;63.28
76611;BME280;65503;48.534;9.062;2023-04-01T07:00:33;95668.06;;;10.27;63.86
76611;BME280;65503;48.534;9.062;2023-04-01T07:03:32;95653.84;;;10.18;64.17
76611;BME280;65503;48.534;9.062;2023-04-01T07:06:05;95667.31;;;10.57;62.94
76611;BME280;65503;48.534;9.062;2023-04-01T07:08:36;95664.97;;;10.96;62.02
76611;BME280;65503;48.534;9.062;2023-04-01T07:11:09;95661.53;;;11.01;61.97
76611;BME280;65503;48.534;9.062;2023-04-01T07:13:53;95661.28;;;10.67;62.01
76611;BME280;65503;48.534;9.062;2023-04-01T07:16:37;95672.88;;;10.91;61.80
76611;BME280;65503;48.534;9.062;2023-04-01T07:19:16;95661.56;;;10.70;62.48
76611;BME280;65503;48.534;9.062;2023-04-01T07:21:51;95665.75;;;11.07;61.78
76611;BME280;65503;48.534;9.062;2023-04-01T07:24:29;95657.84;;;10.71;62.76
76611;BME280;65503;48.534;9.062;2023-04-01T07:26:58;95665.47;;;10.53;63.40
76611;BME280;65503;48.534;9.062;2023-04-01T07:29:26;95669.19;;;10.92;62.40
76611;BME280;65503;48.534;9.062;2023-04-01T07:32:34;95671.00;;;10.61;63.46
76611;BME280;65503;48.534;9.062;2023-04-01T07:35:09;95667.06;;;10.84;63.45
76611;BME280;65503;48.534;9.062;2023-04-01T07:40:47;95676.03;;;10.93;63.21
76611;BME280;65503;48.534;9.062;2023-04-01T07:43:44;95673.38;;;10.83;62.61
76611;BME280;65503;48.534;9.062;2023-04-01T07:46:38;95669.19;;;11.12;62.55
76611;BME280;65503;48.534;9.062;2023-04-01T07:52:02;95675.22;;;11.23;61.66
76611;BME280;65503;48.534;9.062;2023-04-01T07:54:40;95674.72;;;11.01;63.11
76611;BME280;65503;48.534;9.062;2023-04-01T07:57:23;95673.56;;;10.31;64.73
76611;BME280;65503;48.534;9.062;2023-04-01T08:05:35;95676.84;;;11.04;63.30
76611;BME280;65503;48.534;9.062;2023-04-01T08:16:09;95680.78;;;9.88;67.11
76611;BME280;65503;48.534;9.062;2023-04-01T08:21:51;95689.66;;;9.77;68.48
76611;BME280;65503;48.534;9.062;2023-04-01T08:24:34;95686.75;;;10.41;67.31
76611;BME280;65503;48.534;9.062;2023-04-01T08:27:18;95692.09;;;9.99;68.36
76611;BME280;65503;48.534;9.062;2023-04-01T08:30:24;95686.38;;;10.12;66.39
76611;BME280;65503;48.534;9.062;2023-04-01T08:33:02;95702.75;;;9.67;69.09
76611;BME280;65503;48.534;9.062;2023-04-01T08:35:37;95699.75;;;10.01;68.71
76611;BME280;65503;48.534;9.062;2023-04-01T08:38:27;95693.72;;;10.10;68.62
76611;BME280;65503;48.534;9.062;2023-04-01T08:54:36;95701.47;;;10.37;66.82
76611;BME280;65503;48.534;9.062;2023-04-01T09:08:50;95709.13;;;10.54;68.71
76611;BME280;65503;48.534;9.062;2023-04-01T09:25:38;95715.72;;;10.66;68.01
76611;BME280;65503;48.534;9.062;2023-04-01T09:31:25;95722.09;;;11.06;67.12
76611;BME280;65503;48.534;9.062;2023-04-01T09:34:30;95733.16;;;11.23;67.29
76611;BME280;65503;48.534;9.062;2023-04-01T09:39:42;95730.78;;;10.14;70.54
76611;BME280;65503;48.534;9.062;2023-04-01T09:44:58;95733.56;;;10.49;70.40
76611;BME280;65503;48.534;9.062;2023-04-01T09:53:48;95744.47;;;11.44;68.53
76611;BME280;65503;48.534;9.062;2023-04-01T10:02:25;95755.25;;;10.87;69.86
76611;BME280;65503;48.534;9.062;2023-04-01T10:08:12;95760.53;;;10.97;69.86
76611;BME280;65503;48.534;9.062;2023-04-01T10:21:46;95749.19;;;10.91;68.97
76611;BME280;65503;48.534;9.062;2023-04-01T10:24:27;95754.16;;;10.83;69.30
76611;BME280;65503;48.534;9.062;2023-04-01T10:27:34;95756.75;;;10.52;68.72
76611;BME280;65503;48.534;9.062;2023-04-01T10:41:30;95764.06;;;10.45;69.73
76611;BME280;65503;48.534;9.062;2023-04-01T10:44:18;95768.88;;;10.58;68.66
76611;BME280;65503;48.534;9.062;2023-04-01T11:12:32;95766.84;;;11.01;67.43
76611;BME280;65503;48.534;9.062;2023-04-01T11:26:51;95766.81;;;10.91;67.20
76611;BME280;65503;48.534;9.062;2023-04-01T11:37:39;95788.34;;;10.67;67.46
76611;BME280;65503;48.534;9.062;2023-04-01T11:40:25;95783.94;;;10.21;67.39
76611;BME280;65503;48.534;9.062;2023-04-01T11:43:42;95776.78;;;10.63;67.91
76611;BME280;65503;48.534;9.062;2023-04-01T11:49:07;95794.63;;;10.61;66.17
76611;BME280;65503;48.534;9.062;2023-04-01T11:52:05;95787.84;;;10.70;66.81
76611;BME280;65503;48.534;9.062;2023-04-01T11:54:57;95786.06;;;10.96;65.51
76611;BME280;65503;48.534;9.062;2023-04-01T11:57:44;95785.44;;;10.59;67.18
76611;BME280;65503;48.534;9.062;2023-04-01T12:03:27;95794.25;;;11.15;65.04
76611;BME280;65503;48.534;9.062;2023-04-01T12:14:24;95791.41;;;10.39;68.55
76611;BME280;65503;48.534;9.062;2023-04-01T12:25:29;95799.41;;;10.69;68.02
76611;BME280;65503;48.534;9.062;2023-04-01T12:28:21;95811.63;;;11.16;66.63
76611;BME280;65503;48.534;9.062;2023-04-01T12:37:03;95814.53;;;11.25;65.32
76611;BME280;65503;48.534;9.062;2023-04-01T12:45:01;95813.78;;;10.47;65.81
76611;BME280;65503;48.534;9.062;2023-04-01T12:56:10;95817.25;;;10.57;67.27
76611;BME280;65503;48.534;9.062;2023-04-01T13:02:10;95821.56;;;10.89;64.50
76611;BME280;65503;48.534;9.062;2023-04-01T13:07:22;95812.03;;;10.72;64.83
76611;BME280;65503;48.534;9.062;2023-04-01T13:10:01;95813.72;;;11.19;64.54
76611;BME280;65503;48.534;9.062;2023-04-01T13:23:27;95815.78;;;12.33;59.70
76611;BME280;65503;48.534;9.062;2023-04-01T13:26:17;95820.03;;;12.09;59.01
76611;BME280;65503;48.534;9.062;2023-04-01T13:28:52;95820.59;;;11.91;60.89
76611;BME280;65503;48.534;9.062;2023-04-01T13:31:33;95816.56;;;10.87;62.64
76611;BME280;65503;48.534;9.062;2023-04-01T13:36:57;95811.94;;;11.75;61.48
76611;BME280;65503;48.534;9.062;2023-04-01T13:39:40;95809.53;;;11.64;61.27
76611;BME280;65503;48.534;9.062;2023-04-01T13:42:28;95811.63;;;11.56;61.62
76611;BME280;65503;48.534;9.062;2023-04-01T13:45:17;95805.84;;;11.39;61.64
76611;BME280;65503;48.534;9.062;2023-04-01T13:53:27;95840.13;;;11.95;60.28
76611;BME280;65503;48.534;9.062;2023-04-01T13:56:28;95829.06;;;11.78;61.32
76611;BME280;65503;48.534;9.062;2023-04-01T14:07:32;95831.66;;;11.57;61.41
76611;BME280;65503;48.534;9.062;2023-04-01T14:10:07;95838.00;;;12.07;60.79
76611;BME280;65503;48.534;9.062;2023-04-01T14:12:48;95834.03;;;11.64;60.85
76611;BME280;65503;48.534;9.062;2023-04-01T14:21:21;95831.91;;;11.26;62.00
76611;BME280;65503;48.534;9.062;2023-04-01T14:24:20;95827.44;;;11.21;62.06
76611;BME280;65503;48.534;9.062;2023-04-01T14:27:25;95843.69;;;10.98;62.33
76611;BME280;65503;48.534;9.062;2023-04-01T14:33:12;95838.47;;;11.23;62.56
76611;BME280;65503;48.534;9.062;2023-04-01T14:35:52;95842.19;;;11.42;62.37
76611;BME280;65503;48.534;9.062;2023-04-01T14:38:42;95851.94;;;12.08;60.35
76611;BME280;65503;48.534;9.062;2023-04-01T14:41:20;95850.09;;;11.68;62.00
76611;BME280;65503;48.534;9.062;2023-04-01T14:49:22;95847.50;;;11.93;61.13
76611;BME280;65503;48.534;9.062;2023-04-01T14:51:51;95840.53;;;12.42;59.34
76611;BME280;65503;48.534;9.062;2023-04-01T14:54:30;95849.59;;;12.01;60.64
76611;BME280;65503;48.534;9.062;2023-04-01T14:57:15;95850.63;;;12.15;60.36
76611;BME280;65503;48.534;9.062;2023-04-01T14:59:48;95859.22;;;12.61;59.17
76611;BME280;65503;48.534;9.062;2023-04-01T15:02:28;95844.50;;;12.45;59.15
76611;BME280;65503;48.534;9.062;2023-04-01T15:06:08;95866.13;;;12.47;59.20
76611;BME280;65503;48.534;9.062;2023-04-01T15:21:58;95863.81;;;11.70;62.36
76611;BME280;65503;48.534;9.062;2023-04-01T15:33:49;95884.91;;;11.80;62.88
76611;BME280;65503;48.534;9.062;2023-04-01T15:36:29;95886.00;;;11.79;62.25
76611;BME280;65503;48.534;9.062;2023-04-01T15:42:16;95884.91;;;11.70;63.16
76611;BME280;65503;48.534;9.062;2023-04-01T15:52:43;95899.19;;;11.79;62.64
76611;BME280;65503;48.534;9.062;2023-04-01T15:55:44;95894.94;;;11.83;61.86
76611;BME280;65503;48.534;9.062;2023-04-01T15:58:24;95889.69;;;11.78;61.76
76611;BME280;65503;48.534;9.062;2023-04-01T16:01:02;95884.28;;;11.22;63.12
76611;BME280;65503;48.534;9.062;2023-04-01T16:09:34;95892.25;;;11.37;61.52
76611;BME280;65503;48.534;9.062;2023-04-01T16:15:24;95896.00;;;11.82;59.59
76611;BME280;65503;48.534;9.062;2023-04-01T16:20:55;95888.59;;;12.29;58.05
76611;BME280;65503;48.534;9.062;2023-04-01T16:23:37;95886.47;;;12.41;57.86
76611;BME280;65503;48.534;9.062;2023-04-01T16:26:40;95896.00;;;11.97;59.27
76611;BME280;65503;48.534;9.062;2023-04-01T16:31:50;95891.00;;;12.00;59.05
76611;BME280;65503;48.534;9.062;2023-04-01T16:34:22;95888.63;;;11.79;59.76
76611;BME280;65503;48.534;9.062;2023-04-01T16:42:22;95894.94;;;11.98;58.29
76611;BME280;65503;48.534;9.062;2023-04-01T16:47:40;95893.63;;;12.06;58.30
76611;BME280;65503;48.534;9.062;2023-04-01T16:50:19;95902.81;;;12.33;57.92
76611;BME280;65503;48.534;9.062;2023-04-01T16:53:10;95897.31;;;11.79;58.84
76611;BME280;65503;48.534;9.062;2023-04-01T16:55:49;95898.09;;;11.85;59.42
76611;BME280;65503;48.534;9.062;2023-04-01T16:58:26;95903.91;;;12.07;58.99
76611;BME280;65503;48.534;9.062;2023-04-01T17:01:01;95903.38;;;12.00;59.33
76611;BME280;65503;48.534;9.062;2023-04-01T17:03:36;95903.38;;;12.15;58.64
76611;BME280;65503;48.534;9.062;2023-04-01T17:12:01;95894.41;;;11.86;59.98
76611;BME280;65503;48.534;9.062;2023-04-01T17:14:40;95898.91;;;11.95;59.97
76611;BME280;65503;48.534;9.062;2023-04-01T17:17:34;95898.34;;;12.09;59.58
76611;BME280;65503;48.534;9.062;2023-04-01T17:23:23;95902.84;;;12.28;59.12
76611;BME280;65503;48.534;9.062;2023-04-01T17:26:12;95906.53;;;11.87;60.00
76611;BME280;65503;48.534;9.062;2023-04-01T17:28:57;95908.66;;;11.95;60.25
76611;BME280;65503;48.534;9.062;2023-04-01T17:31:45;95910.75;;;11.73;60.95
76611;BME280;65503;48.534;9.062;2023-04-01T17:40:20;95918.16;;;12.01;59.56
76611;BME280;65503;48.534;9.062;2023-04-01T17:43:04;95919.94;;;11.55;60.53
76611;BME280;65503;48.534;9.062;2023-04-01T17:45:47;95931.78;;;11.63;60.88
76611;BME280;65503;48.534;9.062;2023-04-01T17:51:16;95936.88;;;12.10;58.75
76611;BME280;65503;48.534;9.062;2023-04-01T17:54:11;95930.25;;;11.77;59.21
76611;BME280;65503;48.534;9.062;2023-04-01T18:00:07;95951.31;;;11.72;59.67
76611;BME280;65503;48.534;9.062;2023-04-01T18:11:27;95944.91;;;11.32;60.72
76611;BME280;65503;48.534;9.062;2023-04-01T18:22:36;95969.75;;;11.67;59.70
76611;BME280;65503;48.534;9.062;2023-04-01T18:25:21;95972.88;;;11.48;60.46
76611;BME280;65503;48.534;9.062;2023-04-01T18:27:57;95980.47;;;11.40;61.56
76611;BME280;65503;48.534;9.062;2023-04-01T18:30:31;95990.91;;;11.09;62.93
76611;BME280;65503;48.534;9.062;2023-04-01T18:33:03;95999.97;;;10.82;64.26
76611;BME280;65503;48.534;9.062;2023-04-01T18:35:47;96006.03;;;10.82;65.04
76611;BME280;65503;48.534;9.062;2023-04-01T18:38:17;96010.75;;;10.43;66.75
76611;BME280;65503;48.534;9.062;2023-04-01T18:41:13;96020.16;;;10.34;68.18
76611;BME280;65503;48.534;9.062;2023-04-01T18:49:40;96023.13;;;10.16;70.13
76611;BME280;65503;48.534;9.062;2023-04-01T18:57:50;96031.75;;;9.84;70.25
76611;BME280;65503;48.534;9.062;2023-04-01T19:00:24;96037.59;;;9.91;69.89
76611;BME280;65503;48.534;9.062;2023-04-01T19:03:07;96035.53;;;9.93;68.63
76611;BME280;65503;48.534;9.062;2023-04-01T19:05:42;96036.91;;;10.01;68.92
76611;BME280;65503;48.534;9.062;2023-04-01T19:08:19;96032.50;;;10.07;69.68
76611;BME280;65503;48.534;9.062;2023-04-01T19:13:42;96032.94;;;9.99;69.08
76611;BME280;65503;48.534;9.062;2023-04-01T19:21:41;96049.25;;;9.52;69.95
76611;BME280;65503;48.534;9.062;2023-04-01T19:29:53;96040.84;;;9.50;70.40
76611;BME280;65503;48.534;9.062;2023-04-01T19:32:34;96038.16;;;9.45;70.82
76611;BME280;65503;48.534;9.062;2023-04-01T19:35:38;96041.22;;;9.37;70.93
76611;BME280;65503;48.534;9.062;2023-04-01T19:40:47;96043.28;;;9.35;71.00
76611;BME280;65503;48.534;9.062;2023-04-01T19:43:35;96043.66;;;9.22;71.81
76611;BME280;65503;48.534;9.062;2023-04-01T19:51:30;96042.84;;;9.21;71.16
76611;BME280;65503;48.534;9.062;2023-04-01T19:54:04;96053.53;;;9.15;71.40
76611;BME280;65503;48.534;9.062;2023-04-01T19:57:05;96050.34;;;9.12;70.94
76611;BME280;65503;48.534;9.062;2023-04-01T19:59:38;96045.59;;;9.09;71.33
76611;BME280;65503;48.534;9.062;2023-04-01T20:04:42;96059.44;;;9.05;71.48
76611;BME280;65503;48.534;9.062;2023-04-01T20:07:12;96054.03;;;8.95;72.11
76611;BME280;65503;48.534;9.062;2023-04-01T20:15:31;96075.97;;;8.89;70.56
76611;BME280;65503;48.534;9.062;2023-04-01T20:18:02;96076.16;;;8.82;72.32
76611;BME280;65503;48.534;9.062;2023-04-01T20:20:32;96073.13;;;8.90;72.94
76611;BME280;65503;48.534;9.062;2023-04-01T20:23:25;96078.84;;;9.04;72.92
76611;BME280;65503;48.534;9.062;2023-04-01T20:25:57;96085.03;;;9.15;72.64
76611;BME280;65503;48.534;9.062;2023-04-01T20:28:38;96078.94;;;9.31;72.51
76611;BME280;65503;48.534;9.062;2023-04-01T20:31:20;96086.88;;;9.36;72.01
76611;BME280;65503;48.534;9.062;2023-04-01T20:34:19;96087.97;;;9.40;71.81
76611;BME280;65503;48.534;9.062;2023-04-01T20:50:59;96087.44;;;8.99;71.92
76611;BME280;65503;48.534;9.062;2023-04-01T20:56:35;96099.34;;;8.90;71.78
76611;BME280;65503;48.534;9.062;2023-04-01T21:01:46;96104.22;;;8.98;72.87
76611;BME280;65503;48.534;9.062;2023-04-01T21:04:30;96117.53;;;9.13;72.54
76611;BME280;65503;48.534;9.062;2023-04-01T21:21:12;96129.09;;;9.34;70.03
76611;BME280;65503;48.534;9.062;2023-04-01T21:23:51;96136.97;;;9.51;69.77